Startpagina
METAR-TAF:

METAR-TAF

Vliegvelden :

Internationale Luchthaven Oostende-Brugge

Oostende, België

breedte: 51-12N, lengte: 002-52E, hoogte: 4 m

Actueel weer

Dit bericht is 30 minuten geleden gemaakt, om 17:50 UTC
Wind 9 kt uit het noordnoordoosten, variërend tussen het noorden en het oostnoordoosten
Temperatuur 14°C
Vochtigheid 63%
Druk 1029 hPa
Zicht 10 km of meer
Weinig wolken op 3600 ft

METAR: EBOS 181750Z 03009KT 360V060 9999 FEW036 14/07 Q1029 NOSIG

Tijdstip: 20:20 (18:20 UTC)

Verwachting

Dit bericht is 1 uur en het 20 minuten geleden gemaakt, om 17:00 UTC
Verwachting geldig van 18 om 18 UTC tot 19 om 24 UTC
Wind 10 kt uit het noordnoordoosten
Zicht 10 km of meer
Verspreide wolken op 2500 ft
Verspreide wolken op 4000 ft
Wijzigt naar
van 18 om 23 UTC tot 19 om 02 UTC
Wind 3 kt uit variabele richting

TAF: EBOS 181700Z 1818/1924 03010KT 9999 SCT025 SCT040 BECMG 1823/1902 VRB03KT

Waarnemingen en weersverwachtingen van meer dan 4000 vliegvelden (METAR en TAF).

De beschikbare stations zijn de gele en rode punten op de kaart.

Ga met uw muis naar het station om de naam te zien.

Klik dan om waarnemingen en weersverwachtingen te zien.

kaart wijzigen: klik op de groene knoppen met een zwart kruis om in te zoomen, op de groene knop met een streepje om uit te zoomen of op de groene pijlen voor aangrenzende kaarten.


METAR-TAF: